sensor_id;sensor_type;location;lat;lon;timestamp;P1;durP1;ratioP1;P2;durP2;ratioP2
5493;SDS011;2769;49.864;8.656;2023-05-10T00:00:16;1.43;;;1.30;;
5493;SDS011;2769;49.864;8.656;2023-05-10T00:02:44;2.10;;;0.90;;
5493;SDS011;2769;49.864;8.656;2023-05-10T00:05:13;1.00;;;1.00;;
5493;SDS011;2769;49.864;8.656;2023-05-10T00:07:41;0.80;;;0.80;;
5493;SDS011;2769;49.864;8.656;2023-05-10T00:10:11;0.80;;;0.80;;
5493;SDS011;2769;49.864;8.656;2023-05-10T00:12:40;2.93;;;2.73;;
5493;SDS011;2769;49.864;8.656;2023-05-10T00:15:09;0.80;;;0.80;;
5493;SDS011;2769;49.864;8.656;2023-05-10T00:17:37;0.80;;;0.80;;
5493;SDS011;2769;49.864;8.656;2023-05-10T00:20:06;0.90;;;0.90;;
5493;SDS011;2769;49.864;8.656;2023-05-10T00:22:35;1.17;;;0.83;;
5493;SDS011;2769;49.864;8.656;2023-05-10T00:25:03;1.17;;;1.00;;
5493;SDS011;2769;49.864;8.656;2023-05-10T00:27:32;2.20;;;0.90;;
5493;SDS011;2769;49.864;8.656;2023-05-10T00:30:00;1.20;;;1.10;;
5493;SDS011;2769;49.864;8.656;2023-05-10T00:32:29;0.90;;;0.90;;
5493;SDS011;2769;49.864;8.656;2023-05-10T00:34:57;1.07;;;1.07;;
5493;SDS011;2769;49.864;8.656;2023-05-10T00:37:26;7.37;;;1.00;;
5493;SDS011;2769;49.864;8.656;2023-05-10T00:39:54;1.13;;;1.10;;
5493;SDS011;2769;49.864;8.656;2023-05-10T00:42:22;2.60;;;1.27;;
5493;SDS011;2769;49.864;8.656;2023-05-10T00:44:52;2.10;;;2.00;;
5493;SDS011;2769;49.864;8.656;2023-05-10T00:47:20;1.00;;;1.00;;
5493;SDS011;2769;49.864;8.656;2023-05-10T00:49:51;6.90;;;1.60;;
5493;SDS011;2769;49.864;8.656;2023-05-10T00:52:19;1.57;;;1.57;;
5493;SDS011;2769;49.864;8.656;2023-05-10T00:54:47;3.80;;;1.53;;
5493;SDS011;2769;49.864;8.656;2023-05-10T00:57:15;1.60;;;1.60;;
5493;SDS011;2769;49.864;8.656;2023-05-10T00:59:43;1.80;;;1.80;;
5493;SDS011;2769;49.864;8.656;2023-05-10T01:02:11;3.07;;;1.77;;
5493;SDS011;2769;49.864;8.656;2023-05-10T01:04:39;1.87;;;1.77;;
5493;SDS011;2769;49.864;8.656;2023-05-10T01:07:09;2.27;;;2.17;;
5493;SDS011;2769;49.864;8.656;2023-05-10T01:09:37;2.17;;;2.07;;
5493;SDS011;2769;49.864;8.656;2023-05-10T01:12:06;2.97;;;2.00;;
5493;SDS011;2769;49.864;8.656;2023-05-10T01:14:34;5.20;;;2.07;;
5493;SDS011;2769;49.864;8.656;2023-05-10T01:17:03;3.77;;;2.10;;
5493;SDS011;2769;49.864;8.656;2023-05-10T01:19:33;2.10;;;2.00;;
5493;SDS011;2769;49.864;8.656;2023-05-10T01:22:06;4.97;;;1.60;;
5493;SDS011;2769;49.864;8.656;2023-05-10T01:30:43;2.13;;;2.03;;
5493;SDS011;2769;49.864;8.656;2023-05-10T01:33:34;2.30;;;2.20;;
5493;SDS011;2769;49.864;8.656;2023-05-10T01:36:03;2.37;;;2.27;;
5493;SDS011;2769;49.864;8.656;2023-05-10T01:38:37;5.10;;;2.37;;
5493;SDS011;2769;49.864;8.656;2023-05-10T01:41:13;5.93;;;2.43;;
5493;SDS011;2769;49.864;8.656;2023-05-10T01:43:46;2.80;;;2.20;;
5493;SDS011;2769;49.864;8.656;2023-05-10T01:46:20;2.60;;;2.50;;
5493;SDS011;2769;49.864;8.656;2023-05-10T01:48:54;2.77;;;2.57;;
5493;SDS011;2769;49.864;8.656;2023-05-10T01:51:23;3.50;;;3.30;;
5493;SDS011;2769;49.864;8.656;2023-05-10T01:53:54;3.53;;;3.33;;
5493;SDS011;2769;49.864;8.656;2023-05-10T01:56:27;3.90;;;3.60;;
5493;SDS011;2769;49.864;8.656;2023-05-10T01:58:57;3.20;;;3.00;;
5493;SDS011;2769;49.864;8.656;2023-05-10T02:01:26;3.17;;;3.07;;
5493;SDS011;2769;49.864;8.656;2023-05-10T02:03:56;7.43;;;3.10;;
5493;SDS011;2769;49.864;8.656;2023-05-10T02:06:25;3.10;;;2.90;;
5493;SDS011;2769;49.864;8.656;2023-05-10T02:08:54;3.70;;;3.50;;
5493;SDS011;2769;49.864;8.656;2023-05-10T02:11:23;3.00;;;2.90;;
5493;SDS011;2769;49.864;8.656;2023-05-10T02:13:52;4.40;;;3.10;;
5493;SDS011;2769;49.864;8.656;2023-05-10T02:16:26;3.53;;;3.23;;
5493;SDS011;2769;49.864;8.656;2023-05-10T02:18:59;4.00;;;3.13;;
5493;SDS011;2769;49.864;8.656;2023-05-10T02:21:29;3.83;;;3.53;;
5493;SDS011;2769;49.864;8.656;2023-05-10T02:23:59;3.60;;;3.40;;
5493;SDS011;2769;49.864;8.656;2023-05-10T02:26:28;7.97;;;3.77;;
5493;SDS011;2769;49.864;8.656;2023-05-10T02:28:56;4.00;;;3.60;;
5493;SDS011;2769;49.864;8.656;2023-05-10T02:31:26;3.93;;;3.60;;
5493;SDS011;2769;49.864;8.656;2023-05-10T02:33:54;3.30;;;3.03;;
5493;SDS011;2769;49.864;8.656;2023-05-10T02:36:24;3.70;;;3.50;;
5493;SDS011;2769;49.864;8.656;2023-05-10T02:38:53;3.60;;;3.40;;
5493;SDS011;2769;49.864;8.656;2023-05-10T02:41:22;4.10;;;3.83;;
5493;SDS011;2769;49.864;8.656;2023-05-10T02:43:50;4.30;;;3.87;;
5493;SDS011;2769;49.864;8.656;2023-05-10T02:46:19;3.97;;;3.67;;
5493;SDS011;2769;49.864;8.656;2023-05-10T02:48:47;4.37;;;3.87;;
5493;SDS011;2769;49.864;8.656;2023-05-10T02:51:15;4.57;;;4.27;;
5493;SDS011;2769;49.864;8.656;2023-05-10T02:53:46;6.37;;;3.83;;
5493;SDS011;2769;49.864;8.656;2023-05-10T02:56:19;4.50;;;3.73;;
5493;SDS011;2769;49.864;8.656;2023-05-10T02:58:51;4.30;;;3.90;;
5493;SDS011;2769;49.864;8.656;2023-05-10T03:01:19;4.83;;;4.43;;
5493;SDS011;2769;49.864;8.656;2023-05-10T03:03:48;4.90;;;4.10;;
5493;SDS011;2769;49.864;8.656;2023-05-10T03:06:15;4.13;;;3.50;;
5493;SDS011;2769;49.864;8.656;2023-05-10T03:08:43;3.73;;;3.53;;
5493;SDS011;2769;49.864;8.656;2023-05-10T03:11:20;3.93;;;3.47;;
5493;SDS011;2769;49.864;8.656;2023-05-10T03:14:02;5.17;;;3.60;;
5493;SDS011;2769;49.864;8.656;2023-05-10T03:16:38;4.37;;;4.07;;
5493;SDS011;2769;49.864;8.656;2023-05-10T03:19:12;4.60;;;3.80;;
5493;SDS011;2769;49.864;8.656;2023-05-10T03:21:44;4.73;;;3.80;;
5493;SDS011;2769;49.864;8.656;2023-05-10T03:24:15;5.70;;;4.40;;
5493;SDS011;2769;49.864;8.656;2023-05-10T03:26:45;4.30;;;4.00;;
5493;SDS011;2769;49.864;8.656;2023-05-10T03:29:16;5.63;;;4.47;;
5493;SDS011;2769;49.864;8.656;2023-05-10T03:31:45;4.47;;;4.17;;
5493;SDS011;2769;49.864;8.656;2023-05-10T03:34:14;5.13;;;4.40;;
5493;SDS011;2769;49.864;8.656;2023-05-10T03:36:42;4.10;;;3.83;;
5493;SDS011;2769;49.864;8.656;2023-05-10T03:39:09;4.47;;;4.07;;
5493;SDS011;2769;49.864;8.656;2023-05-10T03:41:37;4.30;;;4.00;;
5493;SDS011;2769;49.864;8.656;2023-05-10T03:44:06;7.37;;;4.50;;
5493;SDS011;2769;49.864;8.656;2023-05-10T03:46:34;6.23;;;3.90;;
5493;SDS011;2769;49.864;8.656;2023-05-10T03:49:02;4.80;;;4.40;;
5493;SDS011;2769;49.864;8.656;2023-05-10T03:51:31;4.10;;;3.80;;
5493;SDS011;2769;49.864;8.656;2023-05-10T03:53:59;4.33;;;4.03;;
5493;SDS011;2769;49.864;8.656;2023-05-10T03:56:27;4.40;;;4.00;;
5493;SDS011;2769;49.864;8.656;2023-05-10T03:58:54;4.17;;;3.97;;
5493;SDS011;2769;49.864;8.656;2023-05-10T04:01:24;3.93;;;3.73;;
5493;SDS011;2769;49.864;8.656;2023-05-10T04:03:51;4.40;;;4.10;;
5493;SDS011;2769;49.864;8.656;2023-05-10T04:06:19;4.37;;;3.90;;
5493;SDS011;2769;49.864;8.656;2023-05-10T04:08:47;4.43;;;4.20;;
5493;SDS011;2769;49.864;8.656;2023-05-10T04:11:16;4.50;;;4.20;;
5493;SDS011;2769;49.864;8.656;2023-05-10T04:13:44;4.00;;;3.80;;
5493;SDS011;2769;49.864;8.656;2023-05-10T04:16:12;4.87;;;4.43;;
5493;SDS011;2769;49.864;8.656;2023-05-10T04:18:41;4.13;;;3.93;;
5493;SDS011;2769;49.864;8.656;2023-05-10T04:21:12;6.10;;;4.93;;
5493;SDS011;2769;49.864;8.656;2023-05-10T04:23:40;4.60;;;4.30;;
5493;SDS011;2769;49.864;8.656;2023-05-10T04:26:08;4.10;;;3.90;;
5493;SDS011;2769;49.864;8.656;2023-05-10T04:28:36;4.53;;;4.00;;
5493;SDS011;2769;49.864;8.656;2023-05-10T04:31:04;5.87;;;4.30;;
5493;SDS011;2769;49.864;8.656;2023-05-10T04:33:33;4.60;;;4.20;;
5493;SDS011;2769;49.864;8.656;2023-05-10T04:36:03;4.50;;;4.13;;
5493;SDS011;2769;49.864;8.656;2023-05-10T04:38:31;5.03;;;4.60;;
5493;SDS011;2769;49.864;8.656;2023-05-10T04:41:05;4.80;;;4.50;;
5493;SDS011;2769;49.864;8.656;2023-05-10T04:43:34;8.90;;;5.13;;
5493;SDS011;2769;49.864;8.656;2023-05-10T04:46:02;5.43;;;4.80;;
5493;SDS011;2769;49.864;8.656;2023-05-10T04:48:30;7.70;;;5.00;;
5493;SDS011;2769;49.864;8.656;2023-05-10T04:50:58;6.10;;;5.47;;
5493;SDS011;2769;49.864;8.656;2023-05-10T04:53:27;6.20;;;5.70;;
5493;SDS011;2769;49.864;8.656;2023-05-10T04:55:55;6.07;;;5.57;;
5493;SDS011;2769;49.864;8.656;2023-05-10T04:58:23;5.40;;;5.00;;
5493;SDS011;2769;49.864;8.656;2023-05-10T05:00:51;5.80;;;5.30;;
5493;SDS011;2769;49.864;8.656;2023-05-10T05:03:19;5.63;;;5.13;;
5493;SDS011;2769;49.864;8.656;2023-05-10T05:05:47;13.00;;;5.97;;
5493;SDS011;2769;49.864;8.656;2023-05-10T05:08:15;5.80;;;5.10;;
5493;SDS011;2769;49.864;8.656;2023-05-10T05:10:44;6.10;;;5.20;;
5493;SDS011;2769;49.864;8.656;2023-05-10T05:13:12;10.17;;;5.40;;
5493;SDS011;2769;49.864;8.656;2023-05-10T05:15:40;5.67;;;5.27;;
5493;SDS011;2769;49.864;8.656;2023-05-10T05:18:08;5.10;;;4.60;;
5493;SDS011;2769;49.864;8.656;2023-05-10T05:20:36;5.23;;;4.83;;
5493;SDS011;2769;49.864;8.656;2023-05-10T05:23:04;5.23;;;4.83;;
5493;SDS011;2769;49.864;8.656;2023-05-10T05:25:31;4.40;;;4.10;;
5493;SDS011;2769;49.864;8.656;2023-05-10T05:28:01;4.80;;;4.40;;
5493;SDS011;2769;49.864;8.656;2023-05-10T05:30:28;5.73;;;4.60;;
5493;SDS011;2769;49.864;8.656;2023-05-10T05:32:56;5.03;;;4.40;;
5493;SDS011;2769;49.864;8.656;2023-05-10T05:35:26;5.73;;;4.00;;
5493;SDS011;2769;49.864;8.656;2023-05-10T05:37:54;4.83;;;4.33;;
5493;SDS011;2769;49.864;8.656;2023-05-10T05:40:22;4.97;;;4.47;;
5493;SDS011;2769;49.864;8.656;2023-05-10T05:42:50;6.33;;;4.53;;
5493;SDS011;2769;49.864;8.656;2023-05-10T05:45:19;5.97;;;3.93;;
5493;SDS011;2769;49.864;8.656;2023-05-10T05:47:47;4.93;;;4.47;;
5493;SDS011;2769;49.864;8.656;2023-05-10T05:50:15;4.77;;;4.30;;
5493;SDS011;2769;49.864;8.656;2023-05-10T05:52:43;4.93;;;4.40;;
5493;SDS011;2769;49.864;8.656;2023-05-10T05:55:11;5.07;;;4.67;;
5493;SDS011;2769;49.864;8.656;2023-05-10T05:57:39;5.00;;;4.60;;
5493;SDS011;2769;49.864;8.656;2023-05-10T06:00:08;5.67;;;4.40;;
5493;SDS011;2769;49.864;8.656;2023-05-10T06:02:40;6.40;;;4.50;;
5493;SDS011;2769;49.864;8.656;2023-05-10T06:05:08;8.83;;;5.57;;
5493;SDS011;2769;49.864;8.656;2023-05-10T06:07:36;4.30;;;4.00;;
5493;SDS011;2769;49.864;8.656;2023-05-10T06:10:07;6.97;;;4.80;;
5493;SDS011;2769;49.864;8.656;2023-05-10T06:12:35;5.37;;;4.83;;
5493;SDS011;2769;49.864;8.656;2023-05-10T06:15:04;5.43;;;4.40;;
5493;SDS011;2769;49.864;8.656;2023-05-10T06:17:33;5.10;;;4.40;;
5493;SDS011;2769;49.864;8.656;2023-05-10T06:20:02;8.90;;;4.83;;
5493;SDS011;2769;49.864;8.656;2023-05-10T06:22:30;5.07;;;4.30;;
5493;SDS011;2769;49.864;8.656;2023-05-10T06:24:58;9.90;;;4.30;;
5493;SDS011;2769;49.864;8.656;2023-05-10T06:27:26;5.93;;;4.20;;
5493;SDS011;2769;49.864;8.656;2023-05-10T06:29:55;4.63;;;4.30;;
5493;SDS011;2769;49.864;8.656;2023-05-10T06:32:37;5.17;;;4.00;;
5493;SDS011;2769;49.864;8.656;2023-05-10T06:35:07;9.80;;;4.90;;
5493;SDS011;2769;49.864;8.656;2023-05-10T06:37:35;9.80;;;4.30;;
5493;SDS011;2769;49.864;8.656;2023-05-10T06:40:04;4.97;;;4.67;;
5493;SDS011;2769;49.864;8.656;2023-05-10T06:42:33;8.13;;;4.47;;
5493;SDS011;2769;49.864;8.656;2023-05-10T06:45:02;7.03;;;4.70;;
5493;SDS011;2769;49.864;8.656;2023-05-10T06:47:30;5.20;;;4.50;;
5493;SDS011;2769;49.864;8.656;2023-05-10T06:50:01;5.13;;;4.73;;
5493;SDS011;2769;49.864;8.656;2023-05-10T06:52:30;5.90;;;4.50;;
5493;SDS011;2769;49.864;8.656;2023-05-10T06:54:59;6.37;;;5.20;;
5493;SDS011;2769;49.864;8.656;2023-05-10T06:57:26;4.93;;;4.53;;
5493;SDS011;2769;49.864;8.656;2023-05-10T06:59:57;7.00;;;4.57;;
5493;SDS011;2769;49.864;8.656;2023-05-10T07:02:25;7.67;;;4.90;;
5493;SDS011;2769;49.864;8.656;2023-05-10T07:04:53;7.47;;;5.00;;
5493;SDS011;2769;49.864;8.656;2023-05-10T07:07:21;5.33;;;4.53;;
5493;SDS011;2769;49.864;8.656;2023-05-10T07:09:50;7.10;;;5.30;;
5493;SDS011;2769;49.864;8.656;2023-05-10T07:12:19;5.70;;;5.10;;
5493;SDS011;2769;49.864;8.656;2023-05-10T07:14:47;6.37;;;5.50;;
5493;SDS011;2769;49.864;8.656;2023-05-10T07:17:15;5.17;;;4.77;;
5493;SDS011;2769;49.864;8.656;2023-05-10T07:19:43;6.00;;;5.10;;
5493;SDS011;2769;49.864;8.656;2023-05-10T07:22:11;6.70;;;5.20;;
5493;SDS011;2769;49.864;8.656;2023-05-10T07:24:39;7.80;;;5.60;;
5493;SDS011;2769;49.864;8.656;2023-05-10T07:27:09;5.23;;;4.80;;
5493;SDS011;2769;49.864;8.656;2023-05-10T07:29:36;6.37;;;5.77;;
5493;SDS011;2769;49.864;8.656;2023-05-10T07:32:04;8.43;;;5.10;;
5493;SDS011;2769;49.864;8.656;2023-05-10T07:34:33;5.20;;;4.33;;
5493;SDS011;2769;49.864;8.656;2023-05-10T07:37:01;5.93;;;5.10;;
5493;SDS011;2769;49.864;8.656;2023-05-10T07:39:29;5.87;;;5.37;;
5493;SDS011;2769;49.864;8.656;2023-05-10T07:41:56;6.77;;;4.50;;
5493;SDS011;2769;49.864;8.656;2023-05-10T07:44:26;5.03;;;4.63;;
5493;SDS011;2769;49.864;8.656;2023-05-10T07:46:54;4.73;;;3.90;;
5493;SDS011;2769;49.864;8.656;2023-05-10T07:49:22;7.63;;;4.00;;
5493;SDS011;2769;49.864;8.656;2023-05-10T07:51:50;4.50;;;4.20;;
5493;SDS011;2769;49.864;8.656;2023-05-10T07:54:18;4.50;;;4.10;;
5493;SDS011;2769;49.864;8.656;2023-05-10T07:56:47;4.40;;;4.00;;
5493;SDS011;2769;49.864;8.656;2023-05-10T07:59:16;3.70;;;3.50;;
5493;SDS011;2769;49.864;8.656;2023-05-10T08:01:46;5.43;;;4.23;;
5493;SDS011;2769;49.864;8.656;2023-05-10T08:04:13;4.37;;;4.07;;
5493;SDS011;2769;49.864;8.656;2023-05-10T08:06:41;3.83;;;3.50;;
5493;SDS011;2769;49.864;8.656;2023-05-10T08:09:09;8.13;;;3.80;;
5493;SDS011;2769;49.864;8.656;2023-05-10T08:11:37;3.87;;;3.57;;
5493;SDS011;2769;49.864;8.656;2023-05-10T08:14:05;4.97;;;3.50;;
5493;SDS011;2769;49.864;8.656;2023-05-10T08:16:33;5.40;;;4.10;;
5493;SDS011;2769;49.864;8.656;2023-05-10T08:19:03;3.43;;;3.23;;
5493;SDS011;2769;49.864;8.656;2023-05-10T08:21:31;3.23;;;3.03;;
5493;SDS011;2769;49.864;8.656;2023-05-10T08:23:59;3.33;;;2.80;;
5493;SDS011;2769;49.864;8.656;2023-05-10T08:26:26;3.70;;;3.40;;
5493;SDS011;2769;49.864;8.656;2023-05-10T08:28:54;3.20;;;3.00;;
5493;SDS011;2769;49.864;8.656;2023-05-10T08:31:22;5.80;;;4.00;;
5493;SDS011;2769;49.864;8.656;2023-05-10T08:33:50;3.60;;;3.40;;
5493;SDS011;2769;49.864;8.656;2023-05-10T08:36:20;4.10;;;3.77;;
5493;SDS011;2769;49.864;8.656;2023-05-10T08:38:50;4.93;;;4.20;;
5493;SDS011;2769;49.864;8.656;2023-05-10T08:41:19;5.07;;;4.00;;
5493;SDS011;2769;49.864;8.656;2023-05-10T08:43:48;4.50;;;4.20;;
5493;SDS011;2769;49.864;8.656;2023-05-10T08:46:17;6.60;;;4.30;;
5493;SDS011;2769;49.864;8.656;2023-05-10T08:48:46;4.77;;;4.47;;
5493;SDS011;2769;49.864;8.656;2023-05-10T08:51:17;4.83;;;4.43;;
5493;SDS011;2769;49.864;8.656;2023-05-10T08:53:46;6.33;;;4.57;;
5493;SDS011;2769;49.864;8.656;2023-05-10T08:56:15;4.27;;;3.97;;
5493;SDS011;2769;49.864;8.656;2023-05-10T08:58:44;4.17;;;3.87;;
5493;SDS011;2769;49.864;8.656;2023-05-10T09:01:12;4.03;;;3.73;;
5493;SDS011;2769;49.864;8.656;2023-05-10T09:03:40;4.03;;;3.73;;
5493;SDS011;2769;49.864;8.656;2023-05-10T09:06:09;6.40;;;3.00;;
5493;SDS011;2769;49.864;8.656;2023-05-10T09:08:39;3.83;;;3.43;;
5493;SDS011;2769;49.864;8.656;2023-05-10T09:11:09;5.50;;;2.80;;
5493;SDS011;2769;49.864;8.656;2023-05-10T09:13:39;2.70;;;2.60;;
5493;SDS011;2769;49.864;8.656;2023-05-10T09:16:07;2.70;;;2.50;;
5493;SDS011;2769;49.864;8.656;2023-05-10T09:18:46;1.90;;;1.90;;
5493;SDS011;2769;49.864;8.656;2023-05-10T09:21:15;2.90;;;1.70;;
5493;SDS011;2769;49.864;8.656;2023-05-10T09:23:44;2.37;;;2.17;;
5493;SDS011;2769;49.864;8.656;2023-05-10T09:26:15;1.90;;;1.80;;
5493;SDS011;2769;49.864;8.656;2023-05-10T09:28:50;2.80;;;1.30;;
5493;SDS011;2769;49.864;8.656;2023-05-10T09:31:19;1.67;;;1.53;;
5493;SDS011;2769;49.864;8.656;2023-05-10T09:33:47;1.83;;;1.40;;
5493;SDS011;2769;49.864;8.656;2023-05-10T09:36:16;3.73;;;1.53;;
5493;SDS011;2769;49.864;8.656;2023-05-10T09:38:45;2.73;;;2.20;;
5493;SDS011;2769;49.864;8.656;2023-05-10T09:41:17;1.90;;;1.70;;
5493;SDS011;2769;49.864;8.656;2023-05-10T09:43:46;4.60;;;2.10;;
5493;SDS011;2769;49.864;8.656;2023-05-10T09:46:14;3.37;;;1.30;;
5493;SDS011;2769;49.864;8.656;2023-05-10T09:48:43;1.90;;;1.80;;
5493;SDS011;2769;49.864;8.656;2023-05-10T09:51:18;2.90;;;1.00;;
5493;SDS011;2769;49.864;8.656;2023-05-10T09:53:46;7.10;;;1.50;;
5493;SDS011;2769;49.864;8.656;2023-05-10T09:59:07;2.47;;;1.40;;
5493;SDS011;2769;49.864;8.656;2023-05-10T10:01:36;3.90;;;1.43;;
5493;SDS011;2769;49.864;8.656;2023-05-10T10:04:05;1.33;;;1.20;;
5493;SDS011;2769;49.864;8.656;2023-05-10T10:06:37;1.67;;;1.57;;
5493;SDS011;2769;49.864;8.656;2023-05-10T10:09:06;3.33;;;1.93;;
5493;SDS011;2769;49.864;8.656;2023-05-10T10:11:36;1.40;;;1.40;;
5493;SDS011;2769;49.864;8.656;2023-05-10T10:14:05;3.17;;;1.63;;
5493;SDS011;2769;49.864;8.656;2023-05-10T10:16:33;2.03;;;1.80;;
5493;SDS011;2769;49.864;8.656;2023-05-10T10:19:01;2.23;;;1.60;;
5493;SDS011;2769;49.864;8.656;2023-05-10T10:21:29;1.50;;;1.50;;
5493;SDS011;2769;49.864;8.656;2023-05-10T10:23:57;1.97;;;1.67;;
5493;SDS011;2769;49.864;8.656;2023-05-10T10:26:25;1.30;;;1.30;;
5493;SDS011;2769;49.864;8.656;2023-05-10T10:29:00;1.73;;;1.40;;
5493;SDS011;2769;49.864;8.656;2023-05-10T10:31:36;2.40;;;1.63;;
5493;SDS011;2769;49.864;8.656;2023-05-10T10:34:09;1.93;;;1.60;;
5493;SDS011;2769;49.864;8.656;2023-05-10T10:36:40;1.20;;;1.20;;
5493;SDS011;2769;49.864;8.656;2023-05-10T10:39:10;1.60;;;1.50;;
5493;SDS011;2769;49.864;8.656;2023-05-10T10:41:39;1.70;;;1.60;;
5493;SDS011;2769;49.864;8.656;2023-05-10T10:44:24;1.60;;;1.50;;
5493;SDS011;2769;49.864;8.656;2023-05-10T10:47:05;1.50;;;1.43;;
5493;SDS011;2769;49.864;8.656;2023-05-10T10:49:38;5.53;;;1.30;;
5493;SDS011;2769;49.864;8.656;2023-05-10T10:52:13;2.07;;;1.40;;
5493;SDS011;2769;49.864;8.656;2023-05-10T10:54:46;4.40;;;1.10;;
5493;SDS011;2769;49.864;8.656;2023-05-10T10:57:18;2.10;;;1.20;;
5493;SDS011;2769;49.864;8.656;2023-05-10T10:59:48;1.90;;;1.63;;
5493;SDS011;2769;49.864;8.656;2023-05-10T11:02:42;1.80;;;1.40;;
5493;SDS011;2769;49.864;8.656;2023-05-10T11:08:14;1.83;;;1.30;;
5493;SDS011;2769;49.864;8.656;2023-05-10T11:13:39;1.23;;;1.13;;
5493;SDS011;2769;49.864;8.656;2023-05-10T11:16:13;1.10;;;1.10;;
5493;SDS011;2769;49.864;8.656;2023-05-10T11:18:58;1.70;;;1.60;;
5493;SDS011;2769;49.864;8.656;2023-05-10T11:21:29;1.07;;;1.07;;
5493;SDS011;2769;49.864;8.656;2023-05-10T11:23:58;3.33;;;1.40;;
5493;SDS011;2769;49.864;8.656;2023-05-10T11:26:30;1.37;;;1.27;;
5493;SDS011;2769;49.864;8.656;2023-05-10T11:28:58;1.63;;;1.33;;
5493;SDS011;2769;49.864;8.656;2023-05-10T11:31:28;1.43;;;1.33;;
5493;SDS011;2769;49.864;8.656;2023-05-10T11:33:57;1.70;;;1.00;;
5493;SDS011;2769;49.864;8.656;2023-05-10T11:36:26;3.27;;;1.20;;
5493;SDS011;2769;49.864;8.656;2023-05-10T11:38:56;6.83;;;1.70;;
5493;SDS011;2769;49.864;8.656;2023-05-10T11:41:24;1.53;;;0.93;;
5493;SDS011;2769;49.864;8.656;2023-05-10T11:43:53;6.03;;;0.80;;
5493;SDS011;2769;49.864;8.656;2023-05-10T11:46:22;4.13;;;1.10;;
5493;SDS011;2769;49.864;8.656;2023-05-10T11:48:55;2.00;;;1.03;;
5493;SDS011;2769;49.864;8.656;2023-05-10T11:51:24;1.60;;;1.10;;
5493;SDS011;2769;49.864;8.656;2023-05-10T11:53:53;2.00;;;0.80;;
5493;SDS011;2769;49.864;8.656;2023-05-10T11:56:21;3.23;;;1.00;;
5493;SDS011;2769;49.864;8.656;2023-05-10T11:58:52;5.60;;;1.20;;
5493;SDS011;2769;49.864;8.656;2023-05-10T12:01:20;1.00;;;1.00;;
5493;SDS011;2769;49.864;8.656;2023-05-10T12:03:49;1.20;;;0.83;;
5493;SDS011;2769;49.864;8.656;2023-05-10T12:06:18;4.70;;;1.13;;
5493;SDS011;2769;49.864;8.656;2023-05-10T12:08:47;0.80;;;0.80;;
5493;SDS011;2769;49.864;8.656;2023-05-10T12:11:19;1.00;;;0.80;;
5493;SDS011;2769;49.864;8.656;2023-05-10T12:13:48;0.80;;;0.80;;
5493;SDS011;2769;49.864;8.656;2023-05-10T12:16:16;1.13;;;1.13;;
5493;SDS011;2769;49.864;8.656;2023-05-10T12:18:45;1.37;;;0.80;;
5493;SDS011;2769;49.864;8.656;2023-05-10T12:21:15;2.10;;;1.20;;
5493;SDS011;2769;49.864;8.656;2023-05-10T12:23:45;0.93;;;0.93;;
5493;SDS011;2769;49.864;8.656;2023-05-10T12:26:13;2.23;;;1.87;;
5493;SDS011;2769;49.864;8.656;2023-05-10T12:28:41;3.67;;;1.10;;
5493;SDS011;2769;49.864;8.656;2023-05-10T12:31:09;1.20;;;1.20;;
5493;SDS011;2769;49.864;8.656;2023-05-10T12:33:37;1.23;;;1.00;;
5493;SDS011;2769;49.864;8.656;2023-05-10T12:36:08;2.27;;;0.83;;
5493;SDS011;2769;49.864;8.656;2023-05-10T12:38:37;5.03;;;1.20;;
5493;SDS011;2769;49.864;8.656;2023-05-10T12:41:08;1.83;;;1.10;;
5493;SDS011;2769;49.864;8.656;2023-05-10T12:43:37;1.70;;;0.80;;
5493;SDS011;2769;49.864;8.656;2023-05-10T12:46:06;1.00;;;0.90;;
5493;SDS011;2769;49.864;8.656;2023-05-10T12:48:35;0.90;;;0.90;;
5493;SDS011;2769;49.864;8.656;2023-05-10T12:51:03;0.90;;;0.90;;
5493;SDS011;2769;49.864;8.656;2023-05-10T12:53:35;1.53;;;0.87;;
5493;SDS011;2769;49.864;8.656;2023-05-10T12:56:03;2.23;;;1.70;;
5493;SDS011;2769;49.864;8.656;2023-05-10T12:58:33;1.00;;;0.87;;
5493;SDS011;2769;49.864;8.656;2023-05-10T13:01:01;2.57;;;1.00;;
5493;SDS011;2769;49.864;8.656;2023-05-10T13:03:31;0.93;;;0.90;;
5493;SDS011;2769;49.864;8.656;2023-05-10T13:05:59;0.80;;;0.80;;
5493;SDS011;2769;49.864;8.656;2023-05-10T13:08:27;1.20;;;1.20;;
5493;SDS011;2769;49.864;8.656;2023-05-10T13:10:59;3.77;;;1.03;;
5493;SDS011;2769;49.864;8.656;2023-05-10T13:13:27;1.73;;;1.50;;
5493;SDS011;2769;49.864;8.656;2023-05-10T13:15:56;2.03;;;1.00;;
5493;SDS011;2769;49.864;8.656;2023-05-10T13:18:24;1.60;;;1.30;;
5493;SDS011;2769;49.864;8.656;2023-05-10T13:20:53;2.30;;;1.03;;
5493;SDS011;2769;49.864;8.656;2023-05-10T13:23:22;3.60;;;1.60;;
5493;SDS011;2769;49.864;8.656;2023-05-10T13:25:50;3.73;;;1.40;;
5493;SDS011;2769;49.864;8.656;2023-05-10T13:28:18;2.90;;;1.20;;
5493;SDS011;2769;49.864;8.656;2023-05-10T13:30:46;3.30;;;1.30;;
5493;SDS011;2769;49.864;8.656;2023-05-10T13:33:15;6.23;;;1.53;;
5493;SDS011;2769;49.864;8.656;2023-05-10T13:35:43;3.73;;;1.23;;
5493;SDS011;2769;49.864;8.656;2023-05-10T13:38:11;2.30;;;1.20;;
5493;SDS011;2769;49.864;8.656;2023-05-10T13:40:40;1.00;;;1.00;;
5493;SDS011;2769;49.864;8.656;2023-05-10T13:43:08;2.83;;;1.00;;
5493;SDS011;2769;49.864;8.656;2023-05-10T13:45:36;2.10;;;0.97;;
5493;SDS011;2769;49.864;8.656;2023-05-10T13:48:04;3.97;;;1.10;;
5493;SDS011;2769;49.864;8.656;2023-05-10T13:50:33;4.20;;;1.00;;
5493;SDS011;2769;49.864;8.656;2023-05-10T13:53:01;1.63;;;1.07;;
5493;SDS011;2769;49.864;8.656;2023-05-10T13:55:29;1.30;;;1.00;;
5493;SDS011;2769;49.864;8.656;2023-05-10T13:57:57;1.83;;;1.20;;
5493;SDS011;2769;49.864;8.656;2023-05-10T14:00:25;4.67;;;1.00;;
5493;SDS011;2769;49.864;8.656;2023-05-10T14:02:53;2.17;;;1.13;;
5493;SDS011;2769;49.864;8.656;2023-05-10T14:05:21;3.93;;;1.67;;
5493;SDS011;2769;49.864;8.656;2023-05-10T14:07:53;5.10;;;1.50;;
5493;SDS011;2769;49.864;8.656;2023-05-10T14:10:21;4.43;;;1.67;;
5493;SDS011;2769;49.864;8.656;2023-05-10T14:12:49;2.30;;;1.40;;
5493;SDS011;2769;49.864;8.656;2023-05-10T14:15:17;5.03;;;1.30;;
5493;SDS011;2769;49.864;8.656;2023-05-10T14:17:45;3.23;;;1.20;;
5493;SDS011;2769;49.864;8.656;2023-05-10T14:20:13;3.20;;;1.20;;
5493;SDS011;2769;49.864;8.656;2023-05-10T14:22:41;3.47;;;1.20;;
5493;SDS011;2769;49.864;8.656;2023-05-10T14:25:10;1.90;;;1.30;;
5493;SDS011;2769;49.864;8.656;2023-05-10T14:27:38;4.43;;;1.43;;
5493;SDS011;2769;49.864;8.656;2023-05-10T14:30:06;3.13;;;1.10;;
5493;SDS011;2769;49.864;8.656;2023-05-10T14:32:35;3.87;;;1.10;;
5493;SDS011;2769;49.864;8.656;2023-05-10T14:35:04;2.60;;;1.10;;
5493;SDS011;2769;49.864;8.656;2023-05-10T14:37:36;2.67;;;1.10;;
5493;SDS011;2769;49.864;8.656;2023-05-10T14:40:05;1.50;;;1.40;;
5493;SDS011;2769;49.864;8.656;2023-05-10T14:42:35;6.30;;;1.50;;
5493;SDS011;2769;49.864;8.656;2023-05-10T14:45:03;3.87;;;1.30;;
5493;SDS011;2769;49.864;8.656;2023-05-10T14:47:32;3.63;;;1.20;;
5493;SDS011;2769;49.864;8.656;2023-05-10T14:50:00;6.33;;;1.00;;
5493;SDS011;2769;49.864;8.656;2023-05-10T14:52:28;2.63;;;1.17;;
5493;SDS011;2769;49.864;8.656;2023-05-10T14:54:59;1.43;;;1.13;;
5493;SDS011;2769;49.864;8.656;2023-05-10T14:57:27;2.00;;;1.23;;
5493;SDS011;2769;49.864;8.656;2023-05-10T14:59:57;2.03;;;1.20;;
5493;SDS011;2769;49.864;8.656;2023-05-10T15:02:25;2.50;;;1.20;;
5493;SDS011;2769;49.864;8.656;2023-05-10T15:04:54;2.63;;;1.10;;
5493;SDS011;2769;49.864;8.656;2023-05-10T15:07:22;3.40;;;1.03;;
5493;SDS011;2769;49.864;8.656;2023-05-10T15:09:50;4.73;;;0.93;;
5493;SDS011;2769;49.864;8.656;2023-05-10T15:12:18;2.20;;;0.90;;
5493;SDS011;2769;49.864;8.656;2023-05-10T15:14:46;1.00;;;1.00;;
5493;SDS011;2769;49.864;8.656;2023-05-10T15:17:16;3.47;;;0.80;;
5493;SDS011;2769;49.864;8.656;2023-05-10T15:19:43;1.33;;;1.23;;
5493;SDS011;2769;49.864;8.656;2023-05-10T15:22:12;1.10;;;1.00;;
5493;SDS011;2769;49.864;8.656;2023-05-10T15:24:40;2.50;;;1.00;;
5493;SDS011;2769;49.864;8.656;2023-05-10T15:27:07;3.83;;;1.07;;
5493;SDS011;2769;49.864;8.656;2023-05-10T15:29:35;1.50;;;0.90;;
5493;SDS011;2769;49.864;8.656;2023-05-10T15:32:03;2.27;;;1.10;;
5493;SDS011;2769;49.864;8.656;2023-05-10T15:34:33;4.63;;;1.40;;
5493;SDS011;2769;49.864;8.656;2023-05-10T15:37:02;1.73;;;0.90;;
5493;SDS011;2769;49.864;8.656;2023-05-10T15:39:30;3.23;;;1.10;;
5493;SDS011;2769;49.864;8.656;2023-05-10T15:41:58;1.20;;;1.10;;